Boca Raton, FL (33427)

1:36 AM EDT on August 05, 2015 (GMT -0400)
Boca Surf Cam . Com | | Change Station
CLOSE
Current Station
Personal Weather Station
Location: Boca Raton, FL
Elevation: 26 ft
Nearby Weather Stations

Elev 26 ft 26.35 °N, 80.07 °W | Updated 7 minutes ago

Clear
Clear
84.4 °F
Feels Like 90 °F
N
6.3
Wind Variable Wind from South

Today
High -- | Low -- °F
--% Chance of Precip.
Yesterday
High -- | Low -- °F
Precip. -- in
6:47 AM 8:04 PM
Waning Gibbous, 71% visible
Pressure 30.10 in
Visibility 10.0 miles
Clouds Few 2400 ft
Heat Index 90 °F
Dew Point 71 °F
Humidity 65%
Rainfall 0.00 in
Snow Depth Not available.
UV 0 out of 12
Pollen 3.40 out of 12
Air Quality Not available.
Flu Activity Not available.
METAR KPMP 050453Z AUTO 14007KT 10SM FEW024 29/24 A3009 RMK AO2 SLP191 T02940239 403220239

More Conditions Fewer Conditions

Pressure 30.10 in
Visibility 10.0 miles
Clouds Few 2400 ft
Heat Index 90 °F
Dew Point 71 °F
Humidity 65%
Rainfall 0.00 in
Snow Depth Not available.
UV 0 out of 12
Pollen 3.40 out of 12
Air Quality Not available.
Flu Activity Not available.
METAR KPMP 050453Z AUTO 14007KT 10SM FEW024 29/24 A3009 RMK AO2 SLP191 T02940239 403220239

More Conditions Fewer Conditions

10-Day Weather Forecast

×

Almanac

Astronomy

Aug. 05, 2015 Rise Set
Actual Time
Civil Twilight
Nautical Twilight
Astronomical Twilight
Moon
Length of Visible Light
Length of Day
Tomorrow will be .
, % of the Moon is Illuminated

Today's Extremes

State Highs State Lows

Community

WunderPhotos

Upload Photos

1,844,098 photos uploaded!

WunderBlogs® & News

Nearby

Air Quality

  Air Quality AQ Index Pollutant
Not available.

Snow Depth

Station Depth Elevation

Earthquake Activity

City Distance Mag. Time & Date
Minimum magnitude displayed is 2.5.

Coastal Water Temperatures

Place Temperature

Stations

Nearby Weather Stations

Station Location Temp. Windchill Dew Point Humidity Wind Precip. Elev Updated Type